Time;durP1;ratioP1;P1;durP2;ratioP2;P2;SDS_P1;SDS_P2;PMS_P1;PMS_P2;Temp;Humidity;BMP_temperature;BMP_pressure;BME280_temperature;BME280_humidity;BME280_pressure;Samples;Min_cycle;Max_cycle;Signal;HPM_P1;HPM_P2
2022/09/19 00:02:27;;;;;;;1.27;0.43;;;12.50;99.90;;;;;;7365107;19;20469;-44
2022/09/19 00:04:59;;;;;;;0.47;0.33;;;12.50;99.90;;;;;;7365679;19;20491;-47
2022/09/19 00:07:29;;;;;;;0.53;0.30;;;12.30;99.90;;;;;;7357759;19;20417;-45
2022/09/19 00:09:58;;;;;;;0.40;0.30;;;12.30;99.90;;;;;;7373740;19;20392;-45
2022/09/19 00:12:28;;;;;;;0.40;0.30;;;12.40;99.90;;;;;;7382517;19;20369;-47
2022/09/19 00:14:58;;;;;;;0.60;0.60;;;12.30;99.90;;;;;;7380593;19;20794;-47
2022/09/19 00:17:27;;;;;;;0.30;0.20;;;12.10;99.90;;;;;;7380555;19;20379;-47
2022/09/19 00:19:59;;;;;;;0.40;0.33;;;12.10;99.90;;;;;;7371753;19;20372;-47
2022/09/19 00:22:29;;;;;;;0.37;0.30;;;12.00;99.90;;;;;;7369779;19;20364;-45
2022/09/19 00:24:56;;;;;;;0.30;0.20;;;12.00;99.90;;;;;;7374213;19;20390;-47
2022/09/19 00:27:29;;;;;;;0.60;0.40;;;12.00;99.90;;;;;;7379998;19;20380;-46
2022/09/19 00:29:58;;;;;;;0.30;0.20;;;12.10;99.90;;;;;;7379543;19;20364;-44
2022/09/19 00:32:28;;;;;;;0.30;0.20;;;12.10;99.90;;;;;;7376151;19;20404;-47
2022/09/19 00:35:01;;;;;;;0.30;0.23;;;12.00;99.90;;;;;;7380144;19;20726;-44
2022/09/19 00:37:30;;;;;;;0.50;0.50;;;12.00;99.90;;;;;;7380656;19;20994;-47
2022/09/19 00:40:00;;;;;;;1.47;0.30;;;11.90;99.90;;;;;;7377743;19;20428;-47
2022/09/19 00:42:30;;;;;;;0.40;0.30;;;11.90;99.90;;;;;;7377501;19;20878;-44
2022/09/19 00:45:03;;;;;;;0.40;0.40;;;11.90;99.90;;;;;;7377639;19;20781;-47
2022/09/19 00:47:46;;;;;;;2.80;0.43;;;11.90;99.90;;;;;;7375151;19;20379;-46
2022/09/19 00:50:22;;;;;;;0.70;0.60;;;11.80;99.90;;;;;;7377068;19;20757;-45
2022/09/19 00:52:55;;;;;;;0.40;0.40;;;11.80;99.90;;;;;;7376183;19;20376;-45
2022/09/19 00:55:25;;;;;;;0.50;0.40;;;11.80;99.90;;;;;;7375937;19;21102;-46
2022/09/19 00:58:05;;;;;;;0.80;0.60;;;11.70;99.90;;;;;;7377584;19;20363;-46
2022/09/19 01:00:35;;;;;;;0.50;0.40;;;11.60;99.90;;;;;;7377348;19;20488;-47
2022/09/19 01:03:09;;;;;;;0.30;0.20;;;11.50;99.90;;;;;;7376874;19;20848;-46
2022/09/19 01:05:50;;;;;;;1.27;0.27;;;11.50;99.90;;;;;;7376355;19;20568;-45
2022/09/19 01:08:35;;;;;;;0.30;0.20;;;11.50;99.90;;;;;;7371718;19;20387;-47
2022/09/19 01:11:33;;;;;;;0.30;0.20;;;11.50;99.90;;;;;;7361314;19;21772;-46
2022/09/19 01:14:11;;;;;;;0.87;0.30;;;11.50;99.90;;;;;;7365478;19;20942;-47
2022/09/19 01:16:47;;;;;;;0.40;0.20;;;11.50;99.90;;;;;;7369335;19;20396;-47
2022/09/19 01:19:36;;;;;;;0.40;0.30;;;11.50;99.90;;;;;;7373778;19;20729;-46
2022/09/19 01:22:17;;;;;;;0.30;0.20;;;11.40;99.90;;;;;;7373735;19;20360;-46
2022/09/19 01:24:59;;;;;;;1.27;0.30;;;11.30;99.90;;;;;;7373327;19;20371;-47
2022/09/19 01:28:13;;;;;;;0.60;0.30;;;11.20;99.90;;;;;;7369996;19;21845;-47
2022/09/19 01:31:16;;;;;;;6.80;0.40;;;11.30;99.90;;;;;;7367521;19;20906;-47
2022/09/19 01:33:54;;;;;;;0.83;0.30;;;11.10;99.90;;;;;;7377215;19;20365;-47
2022/09/19 01:36:30;;;;;;;1.17;0.37;;;11.10;99.90;;;;;;7377484;19;20356;-47
2022/09/19 01:39:02;;;;;;;0.30;0.20;;;11.00;99.90;;;;;;7380636;19;20703;-46
2022/09/19 01:41:37;;;;;;;0.20;0.20;;;10.90;99.90;;;;;;7373330;19;20957;-46
2022/09/19 01:44:19;;;;;;;0.83;0.40;;;10.80;99.90;;;;;;7370384;19;20924;-46
2022/09/19 01:46:59;;;;;;;0.93;0.30;;;10.90;99.90;;;;;;7374429;19;20998;-46
2022/09/19 01:49:42;;;;;;;0.40;0.40;;;10.90;99.90;;;;;;7377363;19;20769;-46
2022/09/19 01:52:23;;;;;;;0.40;0.30;;;11.00;99.90;;;;;;7377278;19;20372;-47
2022/09/19 01:55:00;;;;;;;1.10;0.50;;;10.70;99.90;;;;;;7374956;19;20380;-47
2022/09/19 01:57:41;;;;;;;0.70;0.40;;;10.70;99.90;;;;;;7371233;19;20386;-45
2022/09/19 02:00:16;;;;;;;0.80;0.50;;;10.70;99.90;;;;;;7380935;19;20394;-45
2022/09/19 02:02:57;;;;;;;0.67;0.40;;;10.80;99.90;;;;;;7376714;19;20722;-47
2022/09/19 02:05:37;;;;;;;0.67;0.40;;;10.80;99.90;;;;;;7372195;19;20376;-47
2022/09/19 02:08:11;;;;;;;0.87;0.37;;;10.80;99.90;;;;;;7374347;19;20382;-45
2022/09/19 02:10:46;;;;;;;0.60;0.37;;;10.80;99.90;;;;;;7377746;19;21492;-45
2022/09/19 02:13:22;;;;;;;0.40;0.30;;;10.80;99.90;;;;;;7367374;19;20384;-45
2022/09/19 02:16:11;;;;;;;0.97;0.43;;;10.70;99.90;;;;;;7365392;19;20371;-44
2022/09/19 02:18:49;;;;;;;2.93;0.40;;;10.80;99.90;;;;;;7365612;19;20474;-48
2022/09/19 02:21:25;;;;;;;0.63;0.40;;;10.70;99.90;;;;;;7374135;19;20371;-44
2022/09/19 02:24:05;;;;;;;0.77;0.30;;;10.70;99.90;;;;;;7369102;19;20732;-45
2022/09/19 02:26:36;;;;;;;1.03;0.47;;;10.90;99.90;;;;;;7366231;19;20404;-45
2022/09/19 02:29:08;;;;;;;1.90;0.57;;;10.80;99.90;;;;;;7368428;19;20405;-46
2022/09/19 02:31:40;;;;;;;0.43;0.30;;;10.80;99.90;;;;;;7369677;19;20372;-45
2022/09/19 02:34:11;;;;;;;0.30;0.30;;;10.90;99.90;;;;;;7367279;19;21427;-45
2022/09/19 02:36:46;;;;;;;0.60;0.40;;;10.70;99.90;;;;;;7377680;19;20380;-45
2022/09/19 02:39:21;;;;;;;0.70;0.50;;;10.70;99.90;;;;;;7373765;19;20387;-50
2022/09/19 02:42:09;;;;;;;1.57;0.50;;;10.70;99.90;;;;;;7369560;19;20391;-45
2022/09/19 02:44:52;;;;;;;0.97;0.33;;;10.70;99.90;;;;;;7354429;19;20369;-45
2022/09/19 02:47:32;;;;;;;1.17;0.40;;;10.70;99.90;;;;;;7368949;19;20956;-45
2022/09/19 02:50:09;;;;;;;0.90;0.50;;;10.60;99.90;;;;;;7368814;19;20379;-47
2022/09/19 02:52:44;;;;;;;1.37;0.47;;;10.60;99.90;;;;;;7371843;19;20360;-45
2022/09/19 02:55:27;;;;;;;1.80;0.50;;;10.70;99.90;;;;;;7363835;19;20371;-45
2022/09/19 02:58:00;;;;;;;3.20;0.60;;;10.70;99.90;;;;;;7369049;19;20962;-45
2022/09/19 03:00:34;;;;;;;0.87;0.50;;;10.70;99.90;;;;;;7361683;19;20978;-45
2022/09/19 03:06:03;;;;;;;0.40;0.30;;;10.70;99.90;;;;;;7371262;19;20504;-46
2022/09/19 03:08:35;;;;;;;2.70;0.67;;;10.70;99.90;;;;;;7359970;19;21061;-45
2022/09/19 03:11:10;;;;;;;0.80;0.50;;;10.70;99.90;;;;;;7361932;19;20416;-46
2022/09/19 03:13:41;;;;;;;0.93;0.53;;;10.70;99.90;;;;;;7361909;19;20670;-46
2022/09/19 03:16:14;;;;;;;0.77;0.60;;;10.60;99.90;;;;;;7366752;19;20408;-46
2022/09/19 03:18:48;;;;;;;1.27;0.60;;;10.50;99.90;;;;;;7374398;19;20433;-45
2022/09/19 03:21:23;;;;;;;2.33;0.70;;;10.50;99.90;;;;;;7371775;19;20384;-45
2022/09/19 03:23:58;;;;;;;2.30;0.60;;;10.50;99.90;;;;;;7363056;19;20405;-46
2022/09/19 03:26:34;;;;;;;7.97;0.57;;;10.50;99.90;;;;;;7369418;19;20857;-45
2022/09/19 03:29:08;;;;;;;0.60;0.50;;;10.60;99.90;;;;;;7375304;19;20422;-45
2022/09/19 03:31:50;;;;;;;0.70;0.40;;;10.60;99.90;;;;;;7360263;19;21064;-46
2022/09/19 03:34:22;;;;;;;0.50;0.50;;;10.60;99.90;;;;;;7360739;19;20463;-46
2022/09/19 03:36:53;;;;;;;2.70;0.90;;;10.70;99.90;;;;;;7368376;19;20470;-46
2022/09/19 03:39:29;;;;;;;0.67;0.53;;;10.80;99.90;;;;;;7367594;19;20360;-46
2022/09/19 03:41:59;;;;;;;0.93;0.63;;;10.90;99.90;;;;;;7361020;19;20845;-46
2022/09/19 03:44:31;;;;;;;1.67;0.70;;;10.80;99.90;;;;;;7363763;19;20396;-46
2022/09/19 03:47:04;;;;;;;1.80;0.80;;;10.70;99.90;;;;;;7363532;19;20372;-46
2022/09/19 03:49:36;;;;;;;1.60;0.40;;;10.70;99.90;;;;;;7361203;19;20498;-47
2022/09/19 03:52:06;;;;;;;1.60;0.70;;;10.70;99.90;;;;;;7365189;19;20375;-46
2022/09/19 03:54:36;;;;;;;0.87;0.60;;;10.60;99.90;;;;;;7369961;19;20739;-46
2022/09/19 03:57:07;;;;;;;1.23;0.40;;;10.60;99.90;;;;;;7367000;19;20360;-46
2022/09/19 03:59:41;;;;;;;2.70;0.77;;;10.70;99.90;;;;;;7373839;19;20917;-46
2022/09/19 04:02:12;;;;;;;2.20;1.10;;;10.80;99.90;;;;;;7364483;19;20416;-46
2022/09/19 04:04:44;;;;;;;3.10;0.70;;;10.80;99.90;;;;;;7374171;19;20373;-46
2022/09/19 04:07:15;;;;;;;1.17;0.70;;;10.80;99.90;;;;;;7370295;19;20385;-46
2022/09/19 04:09:44;;;;;;;4.50;1.17;;;10.80;99.90;;;;;;7374432;19;20392;-46
2022/09/19 04:12:14;;;;;;;1.67;0.60;;;10.80;99.90;;;;;;7374214;19;20713;-46
2022/09/19 04:14:44;;;;;;;1.07;0.50;;;10.90;99.90;;;;;;7368522;19;20376;-46
2022/09/19 04:17:13;;;;;;;1.50;0.50;;;10.90;99.90;;;;;;7366898;19;20409;-46
2022/09/19 04:19:46;;;;;;;0.67;0.50;;;10.90;99.90;;;;;;7371029;19;20405;-46
2022/09/19 04:22:37;;;;;;;4.07;1.07;;;10.90;99.90;;;;;;7373817;19;20385;-46
2022/09/19 04:25:32;;;;;;;2.30;0.90;;;10.90;99.90;;;;;;7369256;19;20408;-46
2022/09/19 04:28:13;;;;;;;1.40;0.80;;;10.80;99.90;;;;;;7371107;19;20383;-46
2022/09/19 04:30:43;;;;;;;3.60;0.80;;;10.80;99.90;;;;;;7372569;19;20420;-47
2022/09/19 04:33:17;;;;;;;2.30;0.83;;;10.90;99.90;;;;;;7373317;19;20368;-47
2022/09/19 04:35:50;;;;;;;2.87;0.60;;;11.00;99.90;;;;;;7366368;19;20368;-47
2022/09/19 04:38:22;;;;;;;2.80;1.00;;;11.10;99.90;;;;;;7372798;19;20393;-47
2022/09/19 04:40:57;;;;;;;3.43;1.03;;;11.10;99.90;;;;;;7369647;19;20379;-46
2022/09/19 04:43:29;;;;;;;4.63;1.00;;;11.10;99.90;;;;;;7369843;19;20847;-47
2022/09/19 04:46:21;;;;;;;3.67;0.90;;;11.20;99.90;;;;;;7366909;19;20391;-47
2022/09/19 04:48:54;;;;;;;2.67;0.63;;;11.20;99.90;;;;;;7364085;19;20401;-47
2022/09/19 04:51:31;;;;;;;3.50;1.40;;;11.20;99.90;;;;;;7363245;19;21965;-46
2022/09/19 04:54:03;;;;;;;2.40;1.10;;;11.20;99.90;;;;;;7369896;19;20363;-46
2022/09/19 04:56:35;;;;;;;4.70;2.73;;;11.30;99.90;;;;;;7381966;19;21053;-47
2022/09/19 04:59:06;;;;;;;4.50;2.17;;;11.30;99.90;;;;;;7367972;19;20443;-46
2022/09/19 05:01:38;;;;;;;3.03;1.33;;;11.30;99.90;;;;;;7372914;19;20448;-46
2022/09/19 05:04:08;;;;;;;4.23;1.33;;;11.30;99.90;;;;;;7380528;19;20973;-46
2022/09/19 05:06:40;;;;;;;5.63;1.27;;;11.30;99.90;;;;;;7382827;19;20417;-46
2022/09/19 05:09:13;;;;;;;2.10;0.90;;;11.30;99.90;;;;;;7380181;19;20390;-46
2022/09/19 05:11:55;;;;;;;4.13;1.50;;;11.30;99.90;;;;;;7382429;19;20383;-46
2022/09/19 05:14:25;;;;;;;5.00;1.00;;;11.30;99.90;;;;;;7372294;19;20393;-46
2022/09/19 05:17:00;;;;;;;2.27;1.40;;;11.40;99.90;;;;;;7373723;19;20482;-46
2022/09/19 05:19:32;;;;;;;7.07;2.77;;;11.40;99.90;;;;;;7372490;19;20380;-46
2022/09/19 05:22:04;;;;;;;44.60;25.77;;;11.40;99.90;;;;;;7368639;19;20471;-46
2022/09/19 05:24:37;;;;;;;21.97;9.47;;;11.50;99.90;;;;;;7380745;19;20376;-46
2022/09/19 05:27:07;;;;;;;5.90;2.80;;;11.60;99.90;;;;;;7378130;19;20451;-45
2022/09/19 05:29:39;;;;;;;3.80;2.07;;;11.60;99.90;;;;;;7360152;19;20356;-46
2022/09/19 05:32:09;;;;;;;3.10;1.00;;;11.70;99.90;;;;;;7367904;19;20371;-47
2022/09/19 05:34:45;;;;;;;6.30;1.10;;;11.70;99.90;;;;;;7365574;19;20391;-46
2022/09/19 05:37:45;;;;;;;3.47;1.13;;;11.70;99.90;;;;;;7372732;19;20392;-45
2022/09/19 05:40:39;;;;;;;7.20;2.73;;;11.70;99.90;;;;;;7383477;19;20798;-47
2022/09/19 05:43:13;;;;;;;4.97;1.80;;;11.60;99.90;;;;;;7384493;19;20363;-46
2022/09/19 05:45:44;;;;;;;3.93;1.10;;;11.60;99.90;;;;;;7387631;19;20380;-46
2022/09/19 05:48:13;;;;;;;2.00;1.07;;;11.80;99.90;;;;;;7382482;19;20387;-47
2022/09/19 05:50:45;;;;;;;4.17;1.43;;;11.80;99.90;;;;;;7383638;19;20395;-47
2022/09/19 05:56:11;;;;;;;4.10;1.43;;;11.90;99.90;;;;;;7381998;19;20796;-46
2022/09/19 05:58:54;;;;;;;1.83;1.03;;;12.00;99.90;;;;;;7385716;19;20413;-47
2022/09/19 06:01:26;;;;;;;4.50;1.03;;;12.00;99.90;;;;;;7384067;19;20435;-46
2022/09/19 06:03:57;;;;;;;4.63;1.13;;;11.90;99.90;;;;;;7384463;19;20405;-46
2022/09/19 06:06:29;;;;;;;2.20;1.07;;;12.00;99.90;;;;;;7386483;19;20372;-46
2022/09/19 06:09:01;;;;;;;4.43;1.17;;;12.10;99.90;;;;;;7381065;19;20418;-46
2022/09/19 06:11:36;;;;;;;2.67;1.10;;;12.10;99.90;;;;;;7381686;19;20451;-46
2022/09/19 06:14:22;;;;;;;9.93;1.77;;;12.10;99.90;;;;;;7381840;19;20817;-46
2022/09/19 06:16:53;;;;;;;3.10;1.80;;;12.10;99.90;;;;;;7386787;19;20765;-46
2022/09/19 06:19:25;;;;;;;3.37;1.00;;;12.00;99.90;;;;;;7386188;19;20373;-46
2022/09/19 06:22:03;;;;;;;3.50;2.63;;;12.10;99.90;;;;;;7384601;19;20427;-46
2022/09/19 06:24:36;;;;;;;3.17;1.30;;;12.10;99.90;;;;;;7383363;19;20717;-46
2022/09/19 06:27:10;;;;;;;10.00;1.70;;;12.30;99.90;;;;;;7381039;19;20383;-46
2022/09/19 06:29:43;;;;;;;6.43;1.37;;;12.30;99.90;;;;;;7380271;19;20371;-46
2022/09/19 06:32:35;;;;;;;7.93;1.40;;;12.30;99.90;;;;;;7383713;19;20390;-46
2022/09/19 06:35:12;;;;;;;3.37;0.90;;;12.30;99.90;;;;;;7383724;19;20384;-46
2022/09/19 06:37:42;;;;;;;4.30;1.23;;;12.40;99.90;;;;;;7384365;19;20384;-46
2022/09/19 06:40:18;;;;;;;6.10;1.30;;;12.40;99.90;;;;;;7379023;19;21853;-46
2022/09/19 06:43:02;;;;;;;7.80;1.67;;;12.50;99.90;;;;;;7384057;19;20401;-46
2022/09/19 06:45:50;;;;;;;3.63;1.37;;;12.60;99.90;;;;;;7379689;19;20380;-46
2022/09/19 06:48:38;;;;;;;2.70;1.03;;;12.60;99.90;;;;;;7381749;19;20368;-47
2022/09/19 06:51:34;;;;;;;5.53;1.80;;;12.70;99.60;;;;;;7385484;19;20448;-46
2022/09/19 06:54:05;;;;;;;3.83;1.10;;;12.80;99.10;;;;;;7382540;19;20479;-46
2022/09/19 06:56:38;;;;;;;5.03;1.73;;;12.70;98.50;;;;;;7380503;19;20949;-47
2022/09/19 06:59:10;;;;;;;4.53;1.40;;;12.60;98.80;;;;;;7382407;19;20481;-46
2022/09/19 07:01:41;;;;;;;5.23;1.27;;;12.70;98.50;;;;;;7380461;19;20432;-46
2022/09/19 07:04:11;;;;;;;5.70;1.50;;;12.70;98.40;;;;;;7383856;19;20391;-47
2022/09/19 07:06:58;;;;;;;6.03;1.30;;;12.90;97.90;;;;;;7382538;19;20367;-46
2022/09/19 07:09:30;;;;;;;2.50;0.90;;;12.90;97.10;;;;;;7376795;19;20400;-46
2022/09/19 07:12:02;;;;;;;4.53;1.70;;;13.00;96.30;;;;;;7380460;19;20364;-45
2022/09/19 07:14:35;;;;;;;14.53;2.60;;;13.00;95.70;;;;;;7380847;19;20374;-46
2022/09/19 07:17:06;;;;;;;6.20;1.97;;;13.00;95.90;;;;;;7381462;19;20376;-46
2022/09/19 07:19:35;;;;;;;6.10;1.80;;;13.00;95.80;;;;;;7379161;19;20706;-46
2022/09/19 07:22:30;;;;;;;2.30;1.50;;;13.10;95.70;;;;;;7383633;19;20365;-46
2022/09/19 07:25:13;;;;;;;8.00;2.00;;;13.20;95.50;;;;;;7380882;19;20375;-47
2022/09/19 07:27:59;;;;;;;2.70;1.40;;;13.10;94.70;;;;;;7381828;19;20390;-46
2022/09/19 07:30:29;;;;;;;5.77;1.30;;;13.20;95.70;;;;;;7382354;19;20372;-46
2022/09/19 07:33:00;;;;;;;3.30;1.50;;;13.20;96.10;;;;;;7378014;19;20373;-46
2022/09/19 07:35:31;;;;;;;6.03;1.80;;;13.20;95.10;;;;;;7381257;19;20407;-46
2022/09/19 07:38:01;;;;;;;5.97;2.30;;;13.10;96.50;;;;;;7381105;19;20376;-47
2022/09/19 07:40:54;;;;;;;2.97;1.80;;;13.20;96.40;;;;;;7377839;19;20365;-46
2022/09/19 07:43:33;;;;;;;5.03;1.33;;;13.20;95.80;;;;;;7382448;19;20451;-46
2022/09/19 07:46:23;;;;;;;6.73;1.80;;;13.20;95.40;;;;;;7384240;19;20368;-47
2022/09/19 07:49:13;;;;;;;5.17;1.47;;;13.10;95.80;;;;;;7381229;19;20409;-46
2022/09/19 07:51:55;;;;;;;4.43;2.23;;;13.20;95.80;;;;;;7382155;19;20447;-47
2022/09/19 07:54:24;;;;;;;6.77;2.00;;;13.20;95.60;;;;;;7382484;19;20388;-50
2022/09/19 07:56:54;;;;;;;3.57;1.37;;;13.30;95.90;;;;;;7377286;19;20404;-46
2022/09/19 07:59:27;;;;;;;21.63;2.97;;;13.30;94.90;;;;;;7380885;19;20433;-46
2022/09/19 08:02:00;;;;;;;10.27;2.73;;;13.30;95.40;;;;;;7379895;19;20442;-46
2022/09/19 08:04:36;;;;;;;8.53;1.90;;;13.50;95.00;;;;;;7381274;19;20404;-46
2022/09/19 08:07:09;;;;;;;6.37;1.57;;;13.50;94.40;;;;;;7382193;19;21061;-47
2022/09/19 08:09:41;;;;;;;6.70;1.67;;;13.60;92.90;;;;;;7380554;19;20432;-47
2022/09/19 08:12:23;;;;;;;3.43;1.60;;;13.70;93.00;;;;;;7378639;19;20371;-46
2022/09/19 08:15:05;;;;;;;8.20;1.37;;;13.70;92.70;;;;;;7377987;19;20383;-46
2022/09/19 08:17:36;;;;;;;3.23;1.13;;;13.70;92.70;;;;;;7379893;19;20659;-46
2022/09/19 08:20:06;;;;;;;4.43;1.87;;;13.70;92.80;;;;;;7380538;19;20828;-46
2022/09/19 08:22:41;;;;;;;8.83;2.00;;;13.70;92.90;;;;;;7381050;19;20379;-46
2022/09/19 08:25:13;;;;;;;7.20;1.60;;;13.60;92.50;;;;;;7381240;19;20371;-46
2022/09/19 08:27:46;;;;;;;4.00;1.40;;;13.50;92.90;;;;;;7380638;19;20396;-46
2022/09/19 08:30:21;;;;;;;5.37;1.93;;;13.50;93.90;;;;;;7380318;19;20993;-47
2022/09/19 08:32:52;;;;;;;4.00;1.40;;;13.50;93.40;;;;;;7380788;19;20405;-46
2022/09/19 08:35:22;;;;;;;2.53;1.10;;;13.60;93.10;;;;;;7379544;19;20372;-46
2022/09/19 08:37:57;;;;;;;6.43;1.70;;;13.70;92.50;;;;;;7376575;19;20663;-48
2022/09/19 08:40:34;;;;;;;6.77;1.83;;;13.80;92.00;;;;;;7374204;19;20633;-48
2022/09/19 08:43:11;;;;;;;6.40;1.63;;;14.10;91.80;;;;;;7377909;19;20383;-48
2022/09/19 08:46:09;;;;;;;5.13;2.13;;;14.40;90.70;;;;;;7375954;19;20400;-47
2022/09/19 08:48:58;;;;;;;6.77;2.10;;;14.90;88.80;;;;;;7377925;19;20392;-47
2022/09/19 08:51:31;;;;;;;5.30;1.70;;;15.20;85.30;;;;;;7375648;19;20464;-46
2022/09/19 08:54:12;;;;;;;6.10;1.40;;;15.30;82.10;;;;;;7374537;19;20361;-48
2022/09/19 08:56:44;;;;;;;4.97;2.00;;;15.40;81.80;;;;;;7378432;19;20412;-47
2022/09/19 08:59:20;;;;;;;5.00;1.30;;;15.20;80.90;;;;;;7380725;19;20875;-46
2022/09/19 09:02:07;;;;;;;7.50;1.70;;;15.10;81.60;;;;;;7376621;19;20432;-49
2022/09/19 09:05:00;;;;;;;5.03;1.53;;;15.00;80.80;;;;;;7379348;19;20376;-47
2022/09/19 09:07:42;;;;;;;5.90;1.77;;;14.90;81.70;;;;;;7382407;19;20376;-46
2022/09/19 09:10:54;;;;;;;5.53;1.30;;;14.90;81.60;;;;;;7373956;19;20459;-46
2022/09/19 09:13:43;;;;;;;4.33;2.37;;;14.80;82.40;;;;;;7375137;19;20379;-46
2022/09/19 09:16:22;;;;;;;7.53;1.60;;;14.90;81.80;;;;;;7380341;19;20420;-47
2022/09/19 09:19:22;;;;;;;5.67;1.73;;;14.90;80.60;;;;;;7376071;19;20416;-46
2022/09/19 09:21:59;;;;;;;2.97;1.53;;;14.90;80.40;;;;;;7380400;19;20388;-48
2022/09/19 09:24:39;;;;;;;8.00;2.17;;;14.90;80.70;;;;;;7376624;19;20905;-46
2022/09/19 09:27:39;;;;;;;4.30;1.53;;;15.00;81.10;;;;;;7379651;19;20762;-47
2022/09/19 09:30:20;;;;;;;7.67;2.33;;;15.10;79.70;;;;;;7375208;19;20748;-48
2022/09/19 09:33:11;;;;;;;9.03;2.00;;;15.10;79.40;;;;;;7378180;19;20980;-48
2022/09/19 09:35:49;;;;;;;5.00;1.80;;;15.10;78.70;;;;;;7378649;19;20386;-46
2022/09/19 09:38:30;;;;;;;3.27;1.57;;;15.00;77.60;;;;;;7379626;19;20723;-47
2022/09/19 09:44:05;;;;;;;7.27;2.27;;;15.30;77.60;;;;;;7386641;19;20372;-48
2022/09/19 09:46:53;;;;;;;3.80;1.53;;;15.50;76.80;;;;;;7382607;19;20753;-47
2022/09/19 09:49:29;;;;;;;4.43;1.50;;;15.50;74.90;;;;;;7382194;19;20395;-47
2022/09/19 09:52:13;;;;;;;2.67;1.37;;;15.40;75.30;;;;;;7386289;19;20376;-47
2022/09/19 09:57:45;;;;;;;4.83;1.90;;;15.20;76.60;;;;;;7386108;19;20379;-46
2022/09/19 10:06:03;;;;;;;4.73;1.60;;;15.00;77.30;;;;;;7384857;19;20385;-46
2022/09/19 10:08:44;;;;;;;4.63;2.30;;;14.90;77.30;;;;;;7382860;19;20399;-46
2022/09/19 10:11:21;;;;;;;2.80;1.43;;;14.90;76.80;;;;;;7385068;19;20379;-46
2022/09/19 10:14:01;;;;;;;2.63;1.33;;;15.20;77.00;;;;;;7383992;19;20461;-49
2022/09/19 10:16:34;;;;;;;3.53;1.70;;;15.50;74.80;;;;;;7386664;19;20384;-46
2022/09/19 10:19:16;;;;;;;2.77;1.30;;;15.90;72.70;;;;;;7384780;19;20375;-46
2022/09/19 10:21:47;;;;;;;8.73;2.03;;;16.50;70.90;;;;;;7381931;19;20413;-46
2022/09/19 10:24:50;;;;;;;2.23;1.40;;;17.20;67.10;;;;;;7382703;19;20708;-47
2022/09/19 10:27:26;;;;;;;5.50;1.73;;;18.40;64.40;;;;;;7381415;19;20366;-47
2022/09/19 10:30:02;;;;;;;2.93;1.80;;;19.30;58.20;;;;;;7383808;19;21388;-48
2022/09/19 10:32:37;;;;;;;3.37;1.40;;;19.10;58.10;;;;;;7381104;19;20384;-48
2022/09/19 10:35:26;;;;;;;2.00;1.40;;;18.90;58.60;;;;;;7386844;19;20914;-48
2022/09/19 10:38:01;;;;;;;4.00;1.43;;;18.80;58.60;;;;;;7384211;19;20451;-47
2022/09/19 10:40:34;;;;;;;3.20;1.40;;;18.70;59.30;;;;;;7383390;19;20380;-47
2022/09/19 10:43:04;;;;;;;3.77;1.20;;;18.80;59.10;;;;;;7385322;19;20384;-48
2022/09/19 10:45:37;;;;;;;4.07;1.37;;;18.70;59.00;;;;;;7381757;19;20395;-47
2022/09/19 10:48:15;;;;;;;3.63;1.30;;;18.50;60.00;;;;;;7382903;19;20400;-47
2022/09/19 10:50:45;;;;;;;7.70;1.80;;;18.10;60.50;;;;;;7374754;19;20403;-47
2022/09/19 10:53:22;;;;;;;5.10;1.20;;;17.90;61.60;;;;;;7384488;19;20937;-47
2022/09/19 10:55:56;;;;;;;4.43;2.10;;;17.70;62.50;;;;;;7380986;19;20398;-48
2022/09/19 10:58:29;;;;;;;5.53;1.37;;;17.60;63.10;;;;;;7384645;19;20486;-47
2022/09/19 11:01:09;;;;;;;3.20;1.40;;;17.50;62.80;;;;;;7379643;19;20427;-47
2022/09/19 11:04:01;;;;;;;4.47;1.73;;;17.40;63.30;;;;;;7384715;19;20380;-47
2022/09/19 11:06:33;;;;;;;3.33;1.50;;;17.50;63.80;;;;;;7382662;19;20372;-47
2022/09/19 11:09:25;;;;;;;3.60;1.13;;;17.50;63.60;;;;;;7378872;19;20451;-47
2022/09/19 11:12:05;;;;;;;3.37;1.33;;;17.70;63.00;;;;;;7381211;19;20388;-47
2022/09/19 11:14:41;;;;;;;3.70;1.30;;;17.70;63.10;;;;;;7381273;19;20361;-47
2022/09/19 11:17:41;;;;;;;5.93;1.40;;;17.80;64.00;;;;;;7382206;19;20383;-47
2022/09/19 11:20:30;;;;;;;4.50;1.60;;;18.00;63.00;;;;;;7375781;19;20417;-47
2022/09/19 11:23:31;;;;;;;2.20;1.27;;;17.90;61.70;;;;;;7384753;19;21073;-47
2022/09/19 11:26:11;;;;;;;3.37;1.30;;;17.80;62.50;;;;;;7382438;19;20734;-47
2022/09/19 11:28:55;;;;;;;2.30;1.63;;;17.60;63.40;;;;;;7383763;19;20384;-48
2022/09/19 11:31:38;;;;;;;5.93;1.37;;;17.50;63.50;;;;;;7384546;19;20373;-48
2022/09/19 11:34:21;;;;;;;3.40;1.07;;;17.10;64.30;;;;;;7382925;19;20914;-47
2022/09/19 11:37:06;;;;;;;4.83;1.70;;;16.90;65.30;;;;;;7380738;19;20740;-47
2022/09/19 11:39:49;;;;;;;2.30;1.20;;;16.90;65.80;;;;;;7380010;19;20420;-47
2022/09/19 11:42:32;;;;;;;2.90;1.23;;;16.80;66.50;;;;;;7381640;19;21336;-47
2022/09/19 11:45:13;;;;;;;4.93;1.40;;;16.70;66.90;;;;;;7380099;19;20785;-47
2022/09/19 11:48:26;;;;;;;3.40;1.47;;;16.80;66.80;;;;;;7381890;19;21449;-47
2022/09/19 11:51:08;;;;;;;2.70;1.00;;;16.90;66.50;;;;;;7379667;19;20368;-47
2022/09/19 11:54:02;;;;;;;3.73;1.37;;;16.90;66.30;;;;;;7379165;19;20391;-47
2022/09/19 11:56:59;;;;;;;3.00;1.30;;;16.80;66.70;;;;;;7380106;19;20372;-47
2022/09/19 11:59:42;;;;;;;1.60;1.20;;;16.60;67.50;;;;;;7381468;19;21170;-46
2022/09/19 12:02:36;;;;;;;2.80;1.27;;;16.40;68.80;;;;;;7378876;19;20428;-47
2022/09/19 12:05:18;;;;;;;2.20;1.17;;;16.40;68.30;;;;;;7376891;19;20377;-47
2022/09/19 12:08:05;;;;;;;1.60;1.23;;;16.30;69.60;;;;;;7381738;19;20379;-47
2022/09/19 12:10:38;;;;;;;2.83;0.90;;;16.20;73.20;;;;;;7377744;19;20368;-47
2022/09/19 12:13:15;;;;;;;2.00;1.37;;;16.30;74.80;;;;;;7380818;19;20760;-47
2022/09/19 12:15:52;;;;;;;1.50;1.20;;;16.40;73.90;;;;;;7378968;19;20398;-47
2022/09/19 12:18:27;;;;;;;3.70;1.60;;;16.40;74.80;;;;;;7379237;19;20393;-47
2022/09/19 12:21:00;;;;;;;4.63;1.60;;;16.60;75.30;;;;;;7378444;19;20382;-47
2022/09/19 12:26:35;;;;;;;2.10;0.90;;;16.80;73.20;;;;;;7378784;19;20376;-47
2022/09/19 12:29:12;;;;;;;3.50;1.50;;;17.10;72.00;;;;;;7379283;19;20408;-47
2022/09/19 12:31:46;;;;;;;4.50;1.40;;;17.30;70.20;;;;;;7382643;19;20820;-47
2022/09/19 12:34:35;;;;;;;2.97;1.40;;;17.50;69.80;;;;;;7373919;19;20391;-47
2022/09/19 12:37:16;;;;;;;3.23;1.60;;;18.10;67.70;;;;;;7376619;19;20372;-47
2022/09/19 12:39:52;;;;;;;2.93;0.90;;;19.00;65.10;;;;;;7374098;19;20422;-47
2022/09/19 12:42:27;;;;;;;1.60;0.73;;;19.70;60.00;;;;;;7374222;19;20518;-48
2022/09/19 12:45:08;;;;;;;2.87;1.40;;;20.20;59.70;;;;;;7379360;19;20380;-48
2022/09/19 12:47:54;;;;;;;6.13;1.33;;;21.70;57.50;;;;;;7375849;19;20379;-48
2022/09/19 12:50:38;;;;;;;3.10;1.07;;;22.90;53.40;;;;;;7374952;19;20793;-48
2022/09/19 12:53:27;;;;;;;3.80;1.20;;;23.00;50.80;;;;;;7381014;19;20380;-48
2022/09/19 12:56:06;;;;;;;2.07;1.00;;;22.20;51.00;;;;;;7380673;19;20405;-48
2022/09/19 12:58:46;;;;;;;3.30;1.30;;;21.50;52.50;;;;;;7382857;19;20379;-47
2022/09/19 13:01:21;;;;;;;4.27;2.20;;;20.80;54.10;;;;;;7377237;19;20887;-47
2022/09/19 13:04:00;;;;;;;3.20;1.60;;;20.30;55.00;;;;;;7377902;19;20367;-47
2022/09/19 13:06:42;;;;;;;2.63;1.10;;;20.00;56.20;;;;;;7378416;19;20391;-47
2022/09/19 13:09:19;;;;;;;2.57;1.07;;;19.50;57.00;;;;;;7376217;19;20379;-47
2022/09/19 13:11:52;;;;;;;2.20;1.00;;;19.20;57.80;;;;;;7379274;19;20753;-47
2022/09/19 13:14:33;;;;;;;2.13;1.10;;;19.20;59.00;;;;;;7386458;19;20380;-47
2022/09/19 13:25:30;;;;;;;3.03;1.33;;;19.20;57.70;;;;;;7388109;19;20399;-48
2022/09/19 13:28:34;;;;;;;3.10;1.23;;;19.00;58.10;;;;;;7386050;19;20969;-47
2022/09/19 13:31:17;;;;;;;1.60;1.00;;;18.90;58.20;;;;;;7383824;19;20961;-47
2022/09/19 13:33:49;;;;;;;2.43;1.10;;;18.60;57.90;;;;;;7386346;19;20886;-48
2022/09/19 13:36:40;;;;;;;3.23;0.80;;;18.20;58.70;;;;;;7383008;19;20379;-47
2022/09/19 13:39:41;;;;;;;2.93;0.97;;;18.00;59.60;;;;;;7386056;19;20372;-47
2022/09/19 13:42:23;;;;;;;4.07;1.10;;;17.90;60.90;;;;;;7387074;19;20479;-47
2022/09/19 13:45:02;;;;;;;2.27;0.70;;;19.20;59.30;;;;;;7385926;19;20909;-47
2022/09/19 13:47:37;;;;;;;2.57;1.00;;;20.90;55.50;;;;;;7383106;19;20383;-48
2022/09/19 13:50:21;;;;;;;2.83;1.40;;;21.60;52.70;;;;;;7388286;19;20405;-48
2022/09/19 13:53:01;;;;;;;2.07;1.00;;;22.10;51.40;;;;;;7385197;19;20993;-48
2022/09/19 13:55:36;;;;;;;2.70;1.07;;;22.70;50.00;;;;;;7380461;19;20781;-48
2022/09/19 13:58:33;;;;;;;2.63;1.00;;;22.30;49.50;;;;;;7385895;19;20375;-48
2022/09/19 14:01:24;;;;;;;2.70;1.20;;;21.60;51.00;;;;;;7381630;19;20895;-48
2022/09/19 14:04:52;;;;;;;2.60;1.13;;;21.10;52.20;;;;;;7384776;19;20510;-47
2022/09/19 14:06:59;;;;;;;1.57;0.80;;;20.70;53.20;;;;;;7383468;19;20391;-47
2022/09/19 14:09:40;;;;;;;4.73;1.80;;;19.80;53.90;;;;;;7381093;19;20385;-47
2022/09/19 14:12:46;;;;;;;5.70;1.37;;;19.50;55.00;;;;;;7387043;19;20376;-47